Terminal Aerodrome Forecast
Issued by NWS

Home | Current Version | Previous Version | Text Only | Print | Product List | Glossary On
Versions: 1 2 3 4 5 6 7 8 9 10 11 12 13 14 15 16 17 18 19 20 21 22 23 24 25 26 27
000
FTUS46 KLOX 260532
TAFPMD
TAF
KPMD 260532Z 2606/2706 23014KT P6SM SCT120 BKN200
     FM260800 20008KT 6SM FU SCT020 SCT120 BKN200
     FM262100 25015G25KT P6SM SCT120 BKN200
     FM270400 23014KT P6SM SCT120 BKN200=

USA.gov is the U.S. government's official web portal to all federal, state and local government web resources and services.